Time;durP1;ratioP1;P1;durP2;ratioP2;P2;SDS_P1;SDS_P2;PMS_P1;PMS_P2;Temp;Humidity;BMP_temperature;BMP_pressure;BME280_temperature;BME280_humidity;BME280_pressure;Samples;Min_cycle;Max_cycle;Signal;HPM_P1;HPM_P2
2023/05/18 00:02:04;;;;;;;8.18;1.73;;;8.80;95.50;;;;;;4990765;28;20040;-66
2023/05/18 00:04:33;;;;;;;10.68;1.98;;;8.70;95.60;;;;;;5005254;28;20144;-65
2023/05/18 00:07:02;;;;;;;4.75;1.33;;;8.70;95.70;;;;;;5015440;28;20040;-66
2023/05/18 00:09:33;;;;;;;7.60;1.70;;;8.70;95.80;;;;;;5011083;28;20037;-65
2023/05/18 00:12:00;;;;;;;6.13;1.60;;;8.70;95.90;;;;;;5009582;28;20073;-66
2023/05/18 00:14:26;;;;;;;7.80;1.45;;;8.60;96.00;;;;;;5004327;28;20109;-66
2023/05/18 00:16:52;;;;;;;5.45;1.63;;;8.60;96.10;;;;;;5003709;28;20037;-65
2023/05/18 00:19:19;;;;;;;5.13;2.55;;;8.60;96.30;;;;;;5013516;28;20113;-66
2023/05/18 00:21:46;;;;;;;5.38;1.70;;;8.60;96.50;;;;;;5008472;28;20040;-66
2023/05/18 00:24:13;;;;;;;8.68;2.15;;;8.60;96.10;;;;;;5014733;28;20030;-65
2023/05/18 00:26:40;;;;;;;6.32;2.05;;;8.60;96.20;;;;;;5011330;28;20037;-65
2023/05/18 00:29:07;;;;;;;5.97;1.70;;;8.60;96.30;;;;;;5008610;28;20045;-65
2023/05/18 00:31:35;;;;;;;4.72;1.70;;;8.60;96.40;;;;;;4983191;28;20030;-65
2023/05/18 00:34:13;;;;;;;4.90;1.63;;;8.50;96.60;;;;;;4999417;28;20030;-65
2023/05/18 00:36:39;;;;;;;7.60;1.70;;;8.50;96.70;;;;;;5004387;28;20041;-65
2023/05/18 00:39:07;;;;;;;3.47;1.40;;;8.50;96.60;;;;;;4985827;28;20233;-66
2023/05/18 00:41:34;;;;;;;6.30;1.70;;;8.50;96.50;;;;;;4984762;28;20029;-65
2023/05/18 00:43:59;;;;;;;6.30;1.80;;;8.50;96.50;;;;;;4997748;28;20033;-66
2023/05/18 00:46:27;;;;;;;4.65;1.60;;;8.40;96.60;;;;;;5004546;28;20041;-66
2023/05/18 00:48:55;;;;;;;4.93;2.58;;;8.40;96.70;;;;;;4997438;28;20037;-66
2023/05/18 00:51:22;;;;;;;5.70;1.98;;;8.40;96.90;;;;;;4999419;28;20501;-64
2023/05/18 00:53:50;;;;;;;5.15;1.80;;;8.40;96.80;;;;;;5010441;28;20124;-65
2023/05/18 00:56:16;;;;;;;6.28;1.73;;;8.40;96.90;;;;;;5006342;28;20393;-66
2023/05/18 00:58:43;;;;;;;5.70;1.75;;;8.30;96.90;;;;;;5009390;28;20033;-65
2023/05/18 01:01:09;;;;;;;11.75;2.80;;;8.30;97.10;;;;;;5002692;28;20406;-65
2023/05/18 01:03:39;;;;;;;10.35;1.98;;;8.30;97.50;;;;;;4993834;28;20025;-65
2023/05/18 01:06:05;;;;;;;10.10;2.22;;;8.20;97.70;;;;;;5015060;28;20072;-66
2023/05/18 01:08:32;;;;;;;4.28;1.60;;;8.20;97.80;;;;;;4989768;28;20862;-65
2023/05/18 01:11:27;;;;;;;7.00;1.77;;;8.10;97.90;;;;;;4986301;28;20038;-65
2023/05/18 01:14:28;;;;;;;8.55;1.80;;;8.10;98.00;;;;;;4959960;28;20053;-66
2023/05/18 01:16:56;;;;;;;5.10;2.03;;;8.10;97.90;;;;;;4991865;28;20033;-65
2023/05/18 01:19:59;;;;;;;7.35;1.92;;;8.10;97.80;;;;;;5006712;28;20037;-65
2023/05/18 01:22:28;;;;;;;5.18;1.63;;;8.10;97.80;;;;;;5004138;28;20037;-65
2023/05/18 01:25:09;;;;;;;5.75;1.52;;;8.00;97.80;;;;;;5008808;28;20537;-66
2023/05/18 01:27:36;;;;;;;6.55;1.80;;;8.10;98.00;;;;;;4989538;28;20033;-64
2023/05/18 01:30:07;;;;;;;5.07;1.50;;;8.00;98.00;;;;;;4995672;28;20819;-65
2023/05/18 01:32:40;;;;;;;5.78;1.60;;;8.00;98.10;;;;;;4985146;28;20042;-66
2023/05/18 01:35:06;;;;;;;8.07;1.58;;;8.00;98.10;;;;;;5004085;28;20430;-64
2023/05/18 01:37:31;;;;;;;2.72;1.85;;;8.00;98.00;;;;;;4989466;28;20017;-65
2023/05/18 01:39:57;;;;;;;9.45;3.78;;;8.00;97.90;;;;;;5002988;28;20928;-65
2023/05/18 01:42:26;;;;;;;3.60;1.48;;;7.90;98.00;;;;;;4989409;28;20636;-66
2023/05/18 01:44:57;;;;;;;7.00;1.50;;;7.90;98.00;;;;;;4996711;28;20124;-64
2023/05/18 01:47:27;;;;;;;4.50;1.45;;;7.90;98.10;;;;;;5007853;28;20049;-64
2023/05/18 01:50:03;;;;;;;5.13;1.42;;;7.90;98.10;;;;;;5001995;28;20042;-64
2023/05/18 01:52:42;;;;;;;4.22;1.20;;;7.90;98.20;;;;;;5004569;28;20405;-64
2023/05/18 01:55:10;;;;;;;8.55;1.50;;;7.80;98.10;;;;;;5002589;28;20672;-63
2023/05/18 01:57:38;;;;;;;5.28;1.85;;;7.80;98.30;;;;;;5003360;28;20083;-64
2023/05/18 02:00:07;;;;;;;5.90;1.58;;;7.80;98.10;;;;;;4990715;28;20025;-64
2023/05/18 02:02:41;;;;;;;4.03;1.50;;;7.70;98.20;;;;;;5000328;28;20486;-63
2023/05/18 02:05:11;;;;;;;5.95;1.58;;;7.70;98.30;;;;;;4995092;28;20029;-63
2023/05/18 02:07:38;;;;;;;1.80;1.33;;;7.70;98.40;;;;;;4993344;28;20060;-64
2023/05/18 02:10:06;;;;;;;7.88;1.70;;;7.70;98.50;;;;;;4995423;28;20041;-63
2023/05/18 02:12:32;;;;;;;3.88;1.60;;;7.70;98.60;;;;;;4986129;28;20088;-63
2023/05/18 02:14:59;;;;;;;5.03;1.67;;;7.70;98.70;;;;;;4985334;28;20068;-63
2023/05/18 02:17:25;;;;;;;6.38;1.92;;;7.60;98.60;;;;;;4983908;28;20413;-64
2023/05/18 02:19:51;;;;;;;8.48;1.60;;;7.60;98.60;;;;;;5000439;28;20033;-63
2023/05/18 02:22:17;;;;;;;6.18;1.80;;;7.60;98.70;;;;;;4980567;28;20050;-64
2023/05/18 02:24:45;;;;;;;3.78;1.80;;;7.60;98.70;;;;;;5008968;28;20049;-63
2023/05/18 02:27:13;;;;;;;7.55;1.70;;;7.50;98.80;;;;;;4980863;28;20509;-63
2023/05/18 02:29:39;;;;;;;4.25;1.38;;;7.50;98.80;;;;;;5006306;28;20041;-62
2023/05/18 02:32:05;;;;;;;8.02;2.10;;;7.50;98.80;;;;;;5003604;28;20120;-63
2023/05/18 02:34:31;;;;;;;4.95;2.08;;;7.50;99.00;;;;;;5001307;28;20029;-63
2023/05/18 02:37:02;;;;;;;5.90;1.73;;;7.50;99.00;;;;;;4980988;28;20111;-64
2023/05/18 02:39:29;;;;;;;5.45;1.63;;;7.40;99.10;;;;;;4980569;28;20115;-64
2023/05/18 02:41:55;;;;;;;4.95;1.50;;;7.40;99.10;;;;;;5004010;28;20037;-63
2023/05/18 02:44:21;;;;;;;3.85;1.38;;;7.40;99.10;;;;;;4998312;28;20060;-63
2023/05/18 02:46:48;;;;;;;7.95;1.63;;;7.40;99.30;;;;;;5002045;28;20068;-63
2023/05/18 02:49:13;;;;;;;4.15;1.65;;;7.40;99.30;;;;;;5004051;28;20034;-63
2023/05/18 02:51:41;;;;;;;4.10;1.52;;;7.40;99.40;;;;;;4984759;28;20077;-63
2023/05/18 02:54:10;;;;;;;4.50;1.77;;;7.40;99.30;;;;;;4989072;28;20061;-62
2023/05/18 02:56:40;;;;;;;5.43;1.65;;;7.30;99.30;;;;;;4987255;28;20026;-63
2023/05/18 02:59:23;;;;;;;4.80;1.65;;;7.30;99.40;;;;;;4985062;28;20032;-63
2023/05/18 03:01:49;;;;;;;4.68;1.67;;;7.30;99.60;;;;;;4985640;28;20034;-63
2023/05/18 03:04:15;;;;;;;5.45;1.65;;;7.20;99.70;;;;;;5004686;28;20034;-63
2023/05/18 03:06:51;;;;;;;3.10;1.52;;;7.30;99.90;;;;;;4986321;28;20623;-63
2023/05/18 03:09:18;;;;;;;4.65;1.63;;;7.20;99.90;;;;;;4982066;28;20038;-63
2023/05/18 03:11:44;;;;;;;6.40;1.67;;;7.20;99.90;;;;;;4970647;28;20038;-63
2023/05/18 03:14:11;;;;;;;5.15;1.80;;;7.20;99.90;;;;;;4986499;28;20682;-64
2023/05/18 03:16:37;;;;;;;6.55;1.48;;;7.20;99.90;;;;;;4981375;28;20037;-63
2023/05/18 03:19:07;;;;;;;4.68;1.70;;;7.20;99.90;;;;;;4978204;28;20030;-63
2023/05/18 03:21:37;;;;;;;3.97;1.77;;;7.20;99.90;;;;;;4980461;28;20118;-63
2023/05/18 03:24:04;;;;;;;2.85;1.48;;;7.20;99.90;;;;;;4981436;28;20523;-63
2023/05/18 03:26:32;;;;;;;5.25;1.88;;;7.20;99.90;;;;;;4981822;28;20791;-63
2023/05/18 03:28:59;;;;;;;7.90;2.03;;;7.20;99.90;;;;;;4986775;28;20030;-63
2023/05/18 03:31:25;;;;;;;4.25;1.40;;;7.20;99.90;;;;;;4981216;28;20122;-64
2023/05/18 03:33:53;;;;;;;3.42;1.35;;;7.20;99.90;;;;;;4984568;28;20041;-64
2023/05/18 03:36:21;;;;;;;4.85;1.60;;;7.20;99.90;;;;;;4986510;28;20056;-63
2023/05/18 03:38:47;;;;;;;8.18;1.98;;;7.20;99.90;;;;;;4985812;28;20138;-63
2023/05/18 03:41:14;;;;;;;3.50;1.60;;;7.20;99.90;;;;;;4983220;28;20033;-64
2023/05/18 03:43:40;;;;;;;4.80;1.25;;;7.20;99.90;;;;;;4986293;28;20026;-63
2023/05/18 03:46:06;;;;;;;2.97;1.42;;;7.30;99.90;;;;;;4991163;28;20033;-63
2023/05/18 03:48:32;;;;;;;4.72;1.67;;;7.30;99.90;;;;;;4984519;28;20041;-63
2023/05/18 03:50:58;;;;;;;3.42;1.25;;;7.30;99.90;;;;;;4979776;28;20790;-63
2023/05/18 03:53:28;;;;;;;2.40;1.40;;;7.40;99.90;;;;;;4986404;28;20656;-63
2023/05/18 03:55:55;;;;;;;2.97;1.33;;;7.30;99.90;;;;;;4986526;28;20034;-66
2023/05/18 03:58:22;;;;;;;6.35;1.60;;;7.40;99.90;;;;;;4999886;28;20465;-67
2023/05/18 04:00:48;;;;;;;3.30;1.75;;;7.40;99.90;;;;;;4987799;28;20621;-65
2023/05/18 04:03:14;;;;;;;7.95;2.00;;;7.40;99.90;;;;;;4983178;28;20038;-66
2023/05/18 04:05:44;;;;;;;2.85;1.42;;;7.40;99.90;;;;;;4981963;28;20036;-66
2023/05/18 04:08:13;;;;;;;4.15;1.45;;;7.40;99.90;;;;;;4983113;28;20040;-65
2023/05/18 04:10:41;;;;;;;10.35;1.70;;;7.50;99.90;;;;;;4981538;28;20026;-66
2023/05/18 04:13:07;;;;;;;5.13;1.73;;;7.50;99.90;;;;;;4982287;28;20122;-66
2023/05/18 04:15:35;;;;;;;3.28;1.83;;;7.50;99.90;;;;;;4998955;28;20021;-66
2023/05/18 04:18:01;;;;;;;4.40;1.70;;;7.50;99.90;;;;;;4985052;28;20033;-65
2023/05/18 04:20:28;;;;;;;10.05;2.20;;;7.50;99.90;;;;;;4998683;28;20037;-65
2023/05/18 04:22:56;;;;;;;3.17;1.50;;;7.50;99.90;;;;;;5005266;28;20406;-66
2023/05/18 04:25:26;;;;;;;2.45;1.40;;;7.60;99.90;;;;;;4985521;28;20036;-66
2023/05/18 04:27:53;;;;;;;4.47;1.80;;;7.60;99.90;;;;;;4980732;28;20053;-67
2023/05/18 04:30:23;;;;;;;3.65;1.45;;;7.60;99.90;;;;;;4986027;28;20573;-66
2023/05/18 04:32:50;;;;;;;4.00;1.65;;;7.60;99.90;;;;;;4982901;28;20061;-65
2023/05/18 04:35:17;;;;;;;5.25;1.55;;;7.70;99.90;;;;;;4985572;28;20030;-67
2023/05/18 04:37:44;;;;;;;6.97;2.00;;;7.70;99.90;;;;;;4985166;28;20053;-66
2023/05/18 04:40:19;;;;;;;2.88;1.60;;;7.70;99.90;;;;;;4980683;28;20065;-65
2023/05/18 04:42:46;;;;;;;4.85;1.60;;;7.70;99.90;;;;;;4985684;28;20405;-66
2023/05/18 04:45:16;;;;;;;2.53;1.50;;;7.80;99.90;;;;;;4981351;28;20034;-65
2023/05/18 04:47:45;;;;;;;5.45;1.90;;;7.80;99.90;;;;;;4999694;28;20034;-67
2023/05/18 04:50:15;;;;;;;5.60;1.50;;;7.90;99.90;;;;;;4983753;28;20406;-65
2023/05/18 04:52:47;;;;;;;4.43;1.67;;;8.00;99.90;;;;;;4982303;28;20153;-66
2023/05/18 04:55:27;;;;;;;5.47;1.45;;;8.00;99.90;;;;;;4985853;28;20025;-66
2023/05/18 04:58:11;;;;;;;3.95;1.52;;;8.10;99.90;;;;;;4985804;28;20441;-66
2023/05/18 05:00:37;;;;;;;5.30;1.92;;;8.10;99.90;;;;;;4987421;28;20117;-65
2023/05/18 05:03:03;;;;;;;4.38;1.75;;;8.20;99.90;;;;;;4986455;28;20026;-64
2023/05/18 05:05:29;;;;;;;6.05;1.98;;;8.30;99.90;;;;;;4981522;28;20051;-66
2023/05/18 05:07:55;;;;;;;6.15;1.70;;;8.30;99.90;;;;;;4979384;28;20438;-66
2023/05/18 05:10:21;;;;;;;5.95;1.58;;;8.40;99.90;;;;;;4983117;28;20494;-67
2023/05/18 05:12:51;;;;;;;8.93;1.80;;;8.50;99.90;;;;;;4999086;28;20042;-65
2023/05/18 05:15:17;;;;;;;6.88;2.00;;;8.60;99.90;;;;;;4979097;28;20085;-66
2023/05/18 05:17:45;;;;;;;3.95;1.38;;;8.70;99.90;;;;;;4979045;28;20041;-65
2023/05/18 05:20:10;;;;;;;8.35;1.35;;;8.80;99.90;;;;;;4984674;28;20052;-66
2023/05/18 05:22:36;;;;;;;4.47;1.83;;;9.20;99.90;;;;;;4982790;28;20080;-66
2023/05/18 05:25:04;;;;;;;5.22;1.55;;;9.50;99.90;;;;;;4982176;28;20524;-67
2023/05/18 05:27:29;;;;;;;5.72;1.63;;;9.80;99.90;;;;;;4980864;28;20061;-66
2023/05/18 05:29:55;;;;;;;5.03;1.20;;;10.10;99.90;;;;;;4980110;28;20526;-66
2023/05/18 05:32:21;;;;;;;5.18;1.45;;;10.50;99.90;;;;;;4984280;28;20054;-66
2023/05/18 05:34:49;;;;;;;7.10;1.58;;;10.90;98.10;;;;;;4982579;28;20108;-65
2023/05/18 05:37:16;;;;;;;4.57;0.95;;;11.20;96.90;;;;;;4971851;28;20537;-67
2023/05/18 05:39:42;;;;;;;8.95;1.38;;;11.40;96.50;;;;;;4989680;28;20426;-66
2023/05/18 05:42:08;;;;;;;7.80;1.67;;;11.60;96.10;;;;;;4988076;28;20040;-66
2023/05/18 05:44:34;;;;;;;4.55;1.30;;;11.70;95.70;;;;;;5002187;28;20030;-67
2023/05/18 05:47:00;;;;;;;4.93;1.67;;;11.70;95.00;;;;;;4989320;28;20058;-67
2023/05/18 05:49:26;;;;;;;5.20;1.30;;;11.90;94.80;;;;;;4984659;28;20060;-67
2023/05/18 05:51:52;;;;;;;9.65;1.20;;;12.00;94.20;;;;;;4985458;28;20041;-67
2023/05/18 05:54:18;;;;;;;4.70;1.30;;;12.20;93.70;;;;;;5000673;28;20022;-66
2023/05/18 05:56:44;;;;;;;10.48;1.52;;;12.40;93.20;;;;;;4989367;28;20030;-65
2023/05/18 05:59:11;;;;;;;5.03;1.35;;;12.60;92.60;;;;;;4979374;28;20030;-66
2023/05/18 06:01:36;;;;;;;4.57;1.08;;;12.60;92.20;;;;;;4996886;28;20029;-67
2023/05/18 06:04:05;;;;;;;8.13;1.42;;;12.70;92.50;;;;;;4987406;28;20728;-66
2023/05/18 06:06:31;;;;;;;3.40;1.08;;;13.00;92.30;;;;;;4991851;28;20032;-68
2023/05/18 06:08:57;;;;;;;7.95;1.60;;;13.30;90.80;;;;;;5009002;28;20037;-67
2023/05/18 06:11:23;;;;;;;6.63;1.38;;;13.30;90.10;;;;;;5004757;28;20034;-67
2023/05/18 06:13:51;;;;;;;5.60;1.65;;;13.40;90.70;;;;;;4975236;28;20037;-67
2023/05/18 06:16:17;;;;;;;5.43;1.40;;;13.30;90.10;;;;;;4990434;28;20069;-66
2023/05/18 06:18:43;;;;;;;5.30;1.73;;;13.40;89.80;;;;;;4987839;28;20061;-67
2023/05/18 06:21:09;;;;;;;5.50;1.42;;;13.40;89.60;;;;;;5004353;28;20486;-62
2023/05/18 06:23:34;;;;;;;5.13;1.20;;;13.40;87.90;;;;;;4987692;28;20042;-65
2023/05/18 06:26:00;;;;;;;5.47;1.48;;;13.40;88.80;;;;;;4998640;28;20034;-66
2023/05/18 06:28:45;;;;;;;10.10;1.58;;;13.40;89.30;;;;;;5003870;28;20136;-67
2023/05/18 06:31:19;;;;;;;5.05;1.35;;;13.40;88.90;;;;;;4987999;28;20665;-67
2023/05/18 06:33:49;;;;;;;9.02;1.75;;;13.50;89.40;;;;;;4989855;28;20041;-67
2023/05/18 06:36:16;;;;;;;6.57;1.55;;;13.60;88.60;;;;;;4983849;28;20034;-66
2023/05/18 06:38:41;;;;;;;3.00;1.00;;;13.70;88.00;;;;;;4986943;28;20030;-67
2023/05/18 06:41:07;;;;;;;6.53;1.77;;;13.70;86.40;;;;;;4984417;28;20069;-66
2023/05/18 06:43:33;;;;;;;6.70;1.40;;;13.70;87.80;;;;;;4979686;28;20061;-67
2023/05/18 06:46:22;;;;;;;6.07;1.60;;;13.80;88.50;;;;;;4985607;28;20041;-67
2023/05/18 06:48:55;;;;;;;8.27;1.90;;;13.80;86.90;;;;;;4986208;28;20038;-65
2023/05/18 06:51:21;;;;;;;7.28;1.40;;;13.80;87.00;;;;;;4987784;28;20037;-64
2023/05/18 06:53:47;;;;;;;7.00;1.40;;;13.90;86.90;;;;;;4988399;28;20683;-65
2023/05/18 06:56:13;;;;;;;7.05;1.88;;;13.90;85.60;;;;;;4986444;28;20172;-65
2023/05/18 06:58:41;;;;;;;5.72;1.63;;;13.90;85.50;;;;;;4981478;28;20901;-65
2023/05/18 07:01:09;;;;;;;6.28;1.48;;;13.90;83.40;;;;;;4988188;28;20057;-65
2023/05/18 07:03:36;;;;;;;5.70;1.02;;;13.80;84.20;;;;;;4997228;28;20037;-64
2023/05/18 07:06:05;;;;;;;8.05;1.42;;;13.70;83.70;;;;;;5001702;28;20040;-65
2023/05/18 07:08:31;;;;;;;6.60;1.45;;;13.60;83.40;;;;;;5002508;28;20044;-65
2023/05/18 07:10:58;;;;;;;4.53;1.83;;;13.60;84.70;;;;;;5001651;28;20034;-65
2023/05/18 07:13:24;;;;;;;9.20;1.83;;;13.60;84.50;;;;;;4999237;28;20030;-65
2023/05/18 07:15:50;;;;;;;8.20;1.60;;;13.70;84.50;;;;;;5002129;28;20045;-64
2023/05/18 07:18:16;;;;;;;5.32;1.20;;;13.80;84.70;;;;;;4997585;28;20125;-64
2023/05/18 07:20:42;;;;;;;6.82;1.48;;;13.80;84.00;;;;;;5002788;28;20037;-65
2023/05/18 07:23:08;;;;;;;6.25;1.40;;;13.90;83.00;;;;;;4999798;22;20477;-67
2023/05/18 07:25:33;;;;;;;5.40;1.42;;;14.00;81.80;;;;;;4987904;28;20119;-67
2023/05/18 07:28:00;;;;;;;7.22;1.65;;;14.10;82.10;;;;;;4985965;28;20073;-67
2023/05/18 07:30:26;;;;;;;4.82;1.38;;;14.20;80.40;;;;;;4973658;28;20772;-66
2023/05/18 07:32:52;;;;;;;6.30;1.17;;;14.30;79.80;;;;;;4980314;28;20043;-67
2023/05/18 07:35:20;;;;;;;5.28;1.00;;;14.30;77.00;;;;;;4974110;28;20521;-67
2023/05/18 07:37:46;;;;;;;6.47;1.65;;;14.40;76.60;;;;;;4975028;28;20026;-66
2023/05/18 07:40:12;;;;;;;5.57;1.30;;;14.40;74.30;;;;;;4972368;28;20038;-67
2023/05/18 07:42:39;;;;;;;2.97;0.90;;;14.40;75.90;;;;;;4978493;28;20038;-66
2023/05/18 07:45:06;;;;;;;5.65;1.67;;;14.50;75.90;;;;;;4981089;28;20441;-67
2023/05/18 07:47:32;;;;;;;4.80;1.00;;;14.40;76.10;;;;;;4978708;28;20523;-66
2023/05/18 07:49:58;;;;;;;6.28;1.20;;;14.50;77.40;;;;;;4974666;28;20038;-66
2023/05/18 07:52:23;;;;;;;5.50;1.45;;;14.60;77.90;;;;;;4977342;28;20506;-66
2023/05/18 07:54:49;;;;;;;9.10;1.42;;;14.60;74.30;;;;;;4973992;28;20728;-66
2023/05/18 07:57:15;;;;;;;5.78;1.30;;;14.70;76.50;;;;;;4968975;28;20034;-66
2023/05/18 07:59:41;;;;;;;5.60;1.48;;;14.70;76.60;;;;;;4982201;28;20087;-68
2023/05/18 08:02:07;;;;;;;6.10;1.30;;;14.80;76.00;;;;;;4980532;28;20041;-67
2023/05/18 08:04:32;;;;;;;7.13;1.30;;;14.80;75.30;;;;;;4976259;28;20090;-67
2023/05/18 08:06:59;;;;;;;6.20;1.25;;;14.90;73.10;;;;;;4983708;28;20042;-68
2023/05/18 08:09:28;;;;;;;8.35;1.33;;;14.90;73.10;;;;;;4978326;28;20784;-67
2023/05/18 08:11:54;;;;;;;7.18;1.33;;;14.90;73.40;;;;;;4984971;28;20045;-68
2023/05/18 08:14:20;;;;;;;5.13;0.75;;;14.90;74.00;;;;;;4976134;28;20030;-67
2023/05/18 08:16:46;;;;;;;3.70;1.35;;;15.00;74.00;;;;;;4977118;28;20038;-67
2023/05/18 08:19:12;;;;;;;8.65;1.77;;;15.10;72.50;;;;;;4961198;28;20038;-67
2023/05/18 08:21:37;;;;;;;6.25;1.67;;;15.20;71.00;;;;;;4978423;28;20030;-67
2023/05/18 08:24:03;;;;;;;6.20;1.08;;;15.20;70.80;;;;;;4975782;28;20043;-68
2023/05/18 08:26:29;;;;;;;3.60;1.05;;;15.30;70.40;;;;;;4978969;28;20038;-68
2023/05/18 08:28:55;;;;;;;4.93;1.10;;;15.30;70.80;;;;;;4979323;28;20096;-67
2023/05/18 08:31:21;;;;;;;6.00;1.17;;;15.30;69.80;;;;;;4978110;28;20048;-67
2023/05/18 08:33:47;;;;;;;4.22;0.95;;;15.40;68.70;;;;;;4978030;28;20034;-67
2023/05/18 08:36:13;;;;;;;8.32;1.30;;;15.50;70.40;;;;;;4976686;28;20762;-67
2023/05/18 08:38:39;;;;;;;3.45;1.10;;;15.60;68.30;;;;;;4980115;28;20237;-67
2023/05/18 08:41:25;;;;;;;6.68;1.55;;;15.70;67.20;;;;;;4979312;28;20127;-67
2023/05/18 08:44:01;;;;;;;6.07;1.10;;;15.80;68.30;;;;;;4978714;28;20026;-67
2023/05/18 08:46:32;;;;;;;11.20;1.20;;;15.90;68.00;;;;;;4981074;28;20398;-68
2023/05/18 08:48:59;;;;;;;7.78;1.38;;;16.20;68.80;;;;;;4974729;28;20209;-68
2023/05/18 08:51:28;;;;;;;6.65;1.45;;;16.50;66.90;;;;;;4981961;28;20054;-67
2023/05/18 08:53:54;;;;;;;4.97;1.30;;;16.70;64.30;;;;;;4976592;28;20042;-67
2023/05/18 08:56:25;;;;;;;5.38;1.00;;;16.80;65.80;;;;;;4977461;28;20043;-67
2023/05/18 08:58:55;;;;;;;4.55;1.20;;;16.80;64.70;;;;;;4973483;28;20655;-68
2023/05/18 09:01:26;;;;;;;7.07;1.38;;;16.70;63.40;;;;;;4980116;28;20037;-69
2023/05/18 09:03:53;;;;;;;6.05;1.30;;;16.70;63.80;;;;;;4973988;28;20411;-68
2023/05/18 09:06:19;;;;;;;5.38;1.33;;;16.50;63.00;;;;;;4978488;28;20066;-68
2023/05/18 09:08:45;;;;;;;6.22;1.55;;;16.50;64.00;;;;;;4981523;28;20053;-67
2023/05/18 09:11:12;;;;;;;4.90;1.92;;;16.70;63.50;;;;;;4980383;28;20031;-67
2023/05/18 09:13:38;;;;;;;4.47;0.90;;;16.90;63.40;;;;;;4977582;28;20788;-68
2023/05/18 09:16:06;;;;;;;3.88;1.30;;;17.00;64.50;;;;;;4964578;28;20054;-70
2023/05/18 09:18:32;;;;;;;4.45;1.27;;;17.30;66.00;;;;;;4971451;28;20030;-67
2023/05/18 09:20:58;;;;;;;6.70;1.50;;;17.60;64.40;;;;;;4979010;28;20041;-68
2023/05/18 09:23:24;;;;;;;8.80;2.15;;;17.90;61.50;;;;;;4976245;28;20035;-68
2023/05/18 09:25:52;;;;;;;6.47;1.27;;;18.00;60.80;;;;;;4980710;28;20035;-69
2023/05/18 09:28:31;;;;;;;13.02;2.13;;;18.30;59.30;;;;;;4980158;28;20149;-67
2023/05/18 09:30:57;;;;;;;9.10;3.03;;;18.60;59.60;;;;;;4980113;28;20060;-68
2023/05/18 09:33:23;;;;;;;5.13;2.05;;;18.80;58.20;;;;;;4980701;28;20039;-68
2023/05/18 09:35:50;;;;;;;8.85;1.70;;;18.80;58.60;;;;;;4984281;28;20042;-68
2023/05/18 09:38:20;;;;;;;9.93;1.40;;;18.90;58.10;;;;;;4975954;28;20039;-68
2023/05/18 09:40:47;;;;;;;6.35;1.45;;;19.10;57.70;;;;;;4980890;28;20038;-68
2023/05/18 09:43:14;;;;;;;6.50;1.55;;;19.20;58.30;;;;;;4980451;28;20038;-68
2023/05/18 09:45:44;;;;;;;5.43;1.42;;;19.40;56.60;;;;;;4985507;28;20034;-67
2023/05/18 09:48:10;;;;;;;7.05;1.15;;;19.40;54.70;;;;;;4976355;28;20059;-68
2023/05/18 09:50:37;;;;;;;6.32;1.60;;;19.30;55.10;;;;;;4976555;28;20041;-67
2023/05/18 09:53:07;;;;;;;4.82;1.45;;;19.10;56.60;;;;;;4963595;28;20039;-68
2023/05/18 09:55:39;;;;;;;2.60;1.08;;;18.90;55.50;;;;;;4977245;28;20048;-67
2023/05/18 09:58:06;;;;;;;4.50;1.67;;;18.40;56.10;;;;;;4984962;28;20044;-69
2023/05/18 10:00:36;;;;;;;7.55;1.38;;;18.00;56.40;;;;;;4984980;28;20140;-69
2023/05/18 10:03:02;;;;;;;6.35;1.23;;;18.00;58.30;;;;;;4986999;28;20034;-70
2023/05/18 10:05:32;;;;;;;5.75;1.45;;;18.20;58.30;;;;;;4976745;28;20128;-68
2023/05/18 10:07:59;;;;;;;5.57;1.67;;;18.60;57.80;;;;;;4981439;28;20112;-68
2023/05/18 10:10:28;;;;;;;6.03;1.13;;;18.90;56.00;;;;;;4978639;28;20030;-68
2023/05/18 10:12:56;;;;;;;9.32;1.50;;;19.10;55.60;;;;;;4978182;28;20070;-68
2023/05/18 10:15:23;;;;;;;8.00;1.58;;;19.10;54.10;;;;;;4981186;28;20101;-68
2023/05/18 10:17:50;;;;;;;3.60;1.25;;;18.90;53.30;;;;;;4974925;28;20038;-67
2023/05/18 10:20:25;;;;;;;7.20;1.40;;;18.70;55.50;;;;;;4975671;28;20038;-67
2023/05/18 10:22:53;;;;;;;5.40;1.40;;;18.50;55.40;;;;;;4977244;28;20600;-68
2023/05/18 10:25:21;;;;;;;6.22;2.58;;;18.40;54.90;;;;;;4977622;28;20490;-68
2023/05/18 10:27:49;;;;;;;5.68;1.33;;;18.40;56.50;;;;;;4976978;28;20057;-69
2023/05/18 10:30:16;;;;;;;5.13;1.20;;;18.90;57.00;;;;;;4979103;28;20031;-68
2023/05/18 10:32:42;;;;;;;4.57;1.48;;;19.50;54.50;;;;;;4977376;28;20458;-68
2023/05/18 10:35:09;;;;;;;9.10;1.50;;;20.00;54.10;;;;;;4977524;28;20802;-68
2023/05/18 10:37:42;;;;;;;6.53;1.15;;;20.10;53.90;;;;;;4975805;28;21089;-67
2023/05/18 10:40:10;;;;;;;5.82;1.45;;;20.00;52.50;;;;;;4978334;28;20069;-68
2023/05/18 10:42:36;;;;;;;6.32;1.23;;;19.80;53.20;;;;;;4971877;28;20418;-68
2023/05/18 10:45:05;;;;;;;6.97;1.27;;;20.00;55.50;;;;;;4977470;28;20046;-68
2023/05/18 10:47:34;;;;;;;4.75;1.05;;;20.30;52.50;;;;;;4977138;28;20797;-69
2023/05/18 10:50:02;;;;;;;8.30;1.40;;;20.30;53.40;;;;;;4971786;28;20134;-67
2023/05/18 10:52:30;;;;;;;3.17;1.00;;;20.50;53.10;;;;;;4979555;28;20030;-68
2023/05/18 10:55:00;;;;;;;8.88;2.30;;;20.70;51.80;;;;;;4968935;28;20137;-67
2023/05/18 10:57:33;;;;;;;9.70;3.35;;;20.80;51.30;;;;;;4976602;28;20046;-68
2023/05/18 10:59:59;;;;;;;7.75;2.13;;;20.70;51.60;;;;;;4981545;28;20498;-65
2023/05/18 11:02:26;;;;;;;13.85;6.07;;;20.70;51.50;;;;;;4983798;28;20034;-68
2023/05/18 11:04:53;;;;;;;10.63;4.55;;;20.70;51.30;;;;;;4977942;28;20622;-67
2023/05/18 11:07:20;;;;;;;4.95;2.33;;;20.60;50.50;;;;;;4972968;28;20043;-69
2023/05/18 11:09:48;;;;;;;4.25;1.60;;;20.60;49.80;;;;;;4984878;28;20042;-68
2023/05/18 11:12:16;;;;;;;6.35;2.40;;;20.50;49.70;;;;;;4977664;28;20045;-66
2023/05/18 11:14:53;;;;;;;8.23;2.33;;;20.50;51.90;;;;;;4980267;28;20785;-66
2023/05/18 11:17:24;;;;;;;4.45;2.05;;;20.50;51.60;;;;;;4979320;28;20088;-66
2023/05/18 11:20:06;;;;;;;4.90;1.52;;;20.40;49.80;;;;;;4973605;28;20564;-66
2023/05/18 11:22:57;;;;;;;4.90;0.93;;;20.40;50.60;;;;;;4979463;28;20038;-66
2023/05/18 11:25:24;;;;;;;5.05;1.20;;;20.40;50.00;;;;;;4953633;28;20058;-65
2023/05/18 11:28:01;;;;;;;4.85;1.45;;;20.30;49.50;;;;;;4980910;28;20030;-66
2023/05/18 11:30:47;;;;;;;4.45;1.40;;;20.20;50.40;;;;;;4981705;28;20334;-66
2023/05/18 11:33:31;;;;;;;4.53;1.17;;;20.00;50.30;;;;;;4974283;28;20101;-66
2023/05/18 11:36:12;;;;;;;5.53;1.50;;;19.90;50.00;;;;;;4978585;28;20035;-66
2023/05/18 11:38:53;;;;;;;5.18;1.40;;;19.70;51.60;;;;;;4979051;28;20114;-66
2023/05/18 11:41:32;;;;;;;6.95;1.95;;;19.60;51.80;;;;;;4978180;28;20054;-65
2023/05/18 11:44:19;;;;;;;6.63;1.40;;;19.50;52.00;;;;;;4973457;28;20421;-65
2023/05/18 11:47:04;;;;;;;6.53;1.50;;;19.30;50.10;;;;;;4978411;28;20689;-66
2023/05/18 11:49:31;;;;;;;3.70;1.77;;;19.20;52.40;;;;;;4972127;28;20185;-66
2023/05/18 11:52:03;;;;;;;6.43;1.80;;;19.10;52.50;;;;;;4977601;28;20103;-65
2023/05/18 11:54:41;;;;;;;5.45;1.17;;;19.20;50.30;;;;;;4976738;28;20545;-65
2023/05/18 11:57:08;;;;;;;5.13;1.50;;;18.90;48.80;;;;;;4977700;28;20044;-65
2023/05/18 11:59:44;;;;;;;5.28;0.98;;;18.90;50.70;;;;;;4973117;28;20034;-65
2023/05/18 12:02:12;;;;;;;11.57;4.32;;;19.00;52.20;;;;;;4979362;28;20149;-65
2023/05/18 12:04:46;;;;;;;5.65;2.38;;;19.10;51.50;;;;;;4980013;28;20054;-65
2023/05/18 12:07:13;;;;;;;6.15;1.77;;;19.20;52.00;;;;;;4970210;28;20093;-65
2023/05/18 12:09:43;;;;;;;4.38;1.35;;;19.10;51.10;;;;;;4973456;28;20129;-65
2023/05/18 12:12:10;;;;;;;6.97;1.85;;;19.20;51.20;;;;;;4978707;28;20065;-64
2023/05/18 12:14:41;;;;;;;6.78;1.55;;;19.10;52.50;;;;;;4973834;28;20049;-65
2023/05/18 12:17:07;;;;;;;4.20;1.73;;;19.00;52.40;;;;;;4974356;28;20037;-65
2023/05/18 12:19:51;;;;;;;6.05;1.83;;;18.90;53.20;;;;;;4975324;28;20030;-65
2023/05/18 12:22:17;;;;;;;5.18;1.80;;;18.80;53.30;;;;;;4977539;28;20057;-65
2023/05/18 12:24:43;;;;;;;5.22;1.92;;;18.80;54.70;;;;;;4976391;28;20513;-65
2023/05/18 12:27:11;;;;;;;7.47;1.45;;;18.90;54.70;;;;;;4977015;28;20034;-65
2023/05/18 12:29:38;;;;;;;5.70;1.50;;;19.00;53.50;;;;;;4972353;28;20031;-65
2023/05/18 12:32:08;;;;;;;7.80;1.70;;;19.10;52.80;;;;;;4973863;28;20038;-65
2023/05/18 12:34:34;;;;;;;4.75;1.38;;;19.10;51.10;;;;;;4976899;28;20030;-65
2023/05/18 12:37:00;;;;;;;7.03;1.67;;;19.20;51.70;;;;;;4960563;28;20076;-65
2023/05/18 12:39:26;;;;;;;7.85;2.65;;;19.30;51.00;;;;;;4975587;28;20137;-65
2023/05/18 12:41:52;;;;;;;8.05;1.70;;;19.30;50.00;;;;;;4978680;28;20096;-65
2023/05/18 12:44:18;;;;;;;4.03;1.55;;;19.30;50.70;;;;;;4972987;28;20074;-65
2023/05/18 12:46:44;;;;;;;3.97;1.00;;;19.40;49.30;;;;;;4963399;28;20038;-65
2023/05/18 12:49:10;;;;;;;12.02;3.30;;;19.50;50.60;;;;;;4973922;28;20142;-65
2023/05/18 12:51:38;;;;;;;3.97;1.33;;;19.50;50.60;;;;;;4974208;28;20517;-65
2023/05/18 12:54:05;;;;;;;5.18;1.40;;;19.40;50.10;;;;;;4977312;28;20045;-65
2023/05/18 12:56:50;;;;;;;5.15;1.65;;;19.30;51.20;;;;;;4973346;28;20026;-65
2023/05/18 12:59:19;;;;;;;4.63;1.48;;;19.20;51.50;;;;;;4976241;28;20038;-64